Latest Weather Observations for Yamba

IDN60801

Issued at 8:35 pm EST Tuesday 30 September 2014 (issued every 30 minutes, with the page automatically refreshed every 10 minutes)

About weather observations | Map of weather stations | Latest weather observations for NSW | Other Formats
Station Details ID: 058012 Name: YAMBA PILOT STATION Lat: -29.43 Lon: 153.36 Height: 27.4 m
Data from the previous 72 hours. | See also: Recent months at Yamba
Date/Time
EST
Temp
°C
App
Temp
°C
Dew
Point
Rel
Hum
%
Delta-T
°C
Wind Press
QNH
hPa
Press
MSL
hPa
Rain
since 9 am
mm
Dir
 
Spd
km/h
Gust
km/h
Spd
kts
Gust
kts
30/08:30pm 20.0 21.2 19.8 99 0.1 N 13 22 7 12 1016.0 - 0.0
30/08:00pm 20.0 21.2 19.8 99 0.1 N 13 20 7 11 1016.0 - 0.0
30/07:30pm 20.1 21.3 19.9 99 0.1 N 13 20 7 11 1015.9 - 0.0
30/07:00pm 20.2 21.4 20.0 99 0.1 N 13 24 7 13 1015.7 - 0.0
30/06:30pm 20.3 21.2 20.1 99 0.1 N 15 26 8 14 1015.4 - 0.0
30/06:00pm 20.5 21.5 20.3 99 0.1 N 15 26 8 14 1015.1 1015.0 0.0
30/05:30pm 20.8 21.4 20.3 97 0.3 N 17 30 9 16 1014.9 - 0.0
30/05:00pm 21.4 22.0 20.2 93 0.8 N 17 30 9 16 1014.5 - 0.0
30/04:30pm 22.4 23.2 20.7 90 1.1 N 17 32 9 17 1014.5 - 0.0
30/04:00pm 22.8 23.5 20.5 87 1.5 N 17 30 9 16 1014.8 - 0.0
30/03:30pm 23.6 24.5 20.9 85 1.8 N 17 30 9 16 1014.8 - 0.0
30/03:00pm 24.1 25.5 21.0 83 2.0 N 15 32 8 17 1015.1 1015.0 0.0
30/02:30pm 24.7 26.2 21.2 81 2.3 N 15 26 8 14 1015.4 - 0.0
30/02:00pm 24.9 26.6 21.6 82 2.2 N 15 26 8 14 1015.6 - 0.0
30/01:30pm 25.0 27.0 21.5 81 2.3 N 13 22 7 12 1015.8 - 0.0
30/01:00pm 25.5 27.9 22.2 82 2.2 N 13 26 7 14 1016.4 - 0.0
30/12:30pm 25.6 28.5 22.5 83 2.1 N 11 20 6 11 1016.8 - 0.0
30/12:00pm 24.6 27.1 21.7 84 1.9 N 11 22 6 12 1017.2 1017.1 0.0
30/11:30am 24.1 26.5 20.8 82 2.2 NNE 9 17 5 9 1017.5 - 0.0
30/11:00am 23.8 26.0 20.5 82 2.1 NE 9 15 5 8 1017.9 - 0.0
30/10:30am 23.6 26.1 20.3 82 2.1 NNE 7 13 4 7 1018.4 - 0.0
30/10:00am 23.4 25.8 20.0 81 2.2 NNE 7 13 4 7 1018.9 - 0.0
30/09:30am 22.8 24.9 19.4 81 2.2 N 7 13 4 7 1019.2 - 0.0
30/09:00am 22.3 24.6 19.8 86 1.6 N 7 11 4 6 1019.3 1019.3 0.0
30/08:30am 21.4 23.1 18.6 84 1.8 NW 7 11 4 6 1019.4 - 0.0
30/08:00am 20.0 21.5 18.1 89 1.2 NW 7 11 4 6 1019.3 - 0.0
30/07:30am 18.7 20.1 17.4 92 0.8 NNW 6 9 3 5 1019.0 - 0.0
30/07:00am 17.2 17.9 16.2 94 0.6 NNW 7 11 4 6 1019.0 - 0.0
30/06:30am 16.2 16.5 16.0 99 0.1 NNW 9 11 5 6 1018.7 - 0.0
30/06:00am 15.6 15.7 15.4 99 0.1 NNW 9 13 5 7 1018.5 1018.4 0.0
30/05:30am 15.2 15.5 15.0 99 0.1 NNW 7 13 4 7 1018.2 - 0.0
30/05:00am 15.2 15.5 15.0 99 0.1 NNW 7 11 4 6 1017.8 - 0.0
30/04:30am 15.4 15.8 15.2 99 0.1 NNW 7 11 4 6 1017.5 - 0.0
30/04:00am 15.9 15.7 15.7 99 0.1 NNW 11 15 6 8 1017.4 - 0.0
30/03:30am 16.1 16.0 15.9 99 0.1 NNW 11 15 6 8 1017.3 - 0.0
30/03:00am 16.3 16.7 16.3 100 0.0 NNW 9 13 5 7 1017.3 1017.2 0.0
30/02:30am 16.1 16.8 16.1 100 0.0 NNW 7 9 4 5 1017.5 - 0.0
30/02:00am 16.0 16.7 16.0 100 0.0 NNW 7 11 4 6 1017.5 - 0.0
30/01:30am 16.5 17.3 16.3 99 0.1 NW 7 11 4 6 1017.6 - 0.0
30/01:00am 16.9 17.9 16.9 100 0.0 NW 7 9 4 5 1017.8 - 0.0
30/12:30am 16.9 18.1 16.9 100 0.0 NW 6 9 3 5 1018.0 - 0.0
30/12:00am 17.0 18.2 16.8 99 0.1 NW 6 9 3 5 1018.0 1017.9 0.0
 
Date/Time
EST
Temp
°C
App
Temp
°C
Dew
Point
Rel
Hum
%
Delta-T
°C
Wind Press
QNH
hPa
Press
MSL
hPa
Rain
since 9 am
mm
Dir
 
Spd
km/h
Gust
km/h
Spd
kts
Gust
kts
29/11:30pm 17.7 19.2 17.7 100 0.0 NNW 6 7 3 4 1018.2 - 0.0
29/11:00pm 18.0 19.4 17.8 99 0.1 NW 7 9 4 5 1018.3 - 0.0
29/10:30pm 18.5 19.4 18.3 99 0.1 NNW 11 17 6 9 1018.2 - 0.0
29/10:00pm 19.2 20.7 19.0 99 0.1 N 9 17 5 9 1018.1 - 0.0
29/09:30pm 19.2 20.7 19.0 99 0.1 N 9 17 5 9 1018.0 - 0.0
29/09:00pm 19.5 21.2 19.3 99 0.1 N 9 15 5 8 1017.9 1017.8 0.0
29/08:30pm 19.5 21.2 19.3 99 0.1 N 9 17 5 9 1017.9 - 0.0
29/08:00pm 19.7 21.5 19.5 99 0.1 N 9 15 5 8 1017.8 - 0.0
29/07:30pm 19.9 21.4 19.7 99 0.1 N 11 15 6 8 1017.6 - 0.0
29/07:00pm 20.0 21.5 19.8 99 0.1 N 11 15 6 8 1017.3 - 0.0
29/06:30pm 20.1 21.7 19.9 99 0.1 N 11 19 6 10 1016.9 - 0.0
29/06:00pm 20.3 21.5 19.8 97 0.3 N 13 22 7 12 1016.6 1016.5 0.0
29/05:30pm 20.7 21.0 19.7 94 0.6 N 17 24 9 13 1016.3 - 0.0
29/05:00pm 21.5 22.4 20.0 91 1.0 N 15 20 8 11 1016.0 - 0.0
29/04:30pm 22.4 23.6 20.7 90 1.1 N 15 26 8 14 1016.0 - 0.0
29/04:00pm 22.5 23.4 20.0 86 1.6 N 15 24 8 13 1016.1 - 0.0
29/03:30pm 22.9 24.3 20.4 86 1.6 N 13 24 7 13 1016.0 - 0.0
29/03:00pm 23.2 24.6 20.3 84 1.9 N 13 20 7 11 1016.1 1016.0 0.0
29/02:30pm 23.1 24.4 20.2 84 1.9 NNE 13 20 7 11 1016.3 - 0.0
29/02:00pm 23.4 25.1 20.1 82 2.1 NNE 11 22 6 12 1016.4 - 0.0
29/01:30pm 24.0 25.5 20.5 81 2.3 NNE 13 24 7 13 1016.8 - 0.0
29/01:00pm 24.0 25.2 19.9 78 2.6 NNE 13 24 7 13 1017.2 - 0.0
29/12:30pm 23.8 25.4 19.9 79 2.5 NNE 11 17 6 9 1017.8 - 0.0
29/12:00pm 24.1 25.7 20.0 78 2.6 N 11 19 6 10 1018.2 1018.1 0.0
29/11:30am 24.7 26.7 20.0 75 3.0 N 9 17 5 9 1018.4 - 0.0
29/11:00am 24.1 25.5 18.7 72 3.4 N 9 15 5 8 1018.8 - 0.0
29/10:30am 23.4 24.2 18.1 72 3.3 N 11 19 6 10 1019.3 - 0.0
29/10:00am 23.1 23.7 17.8 72 3.3 NNW 11 15 6 8 1019.7 - 0.0
29/09:30am 22.1 22.0 17.0 73 3.1 NW 13 19 7 10 1019.9 - 0.0
29/09:00am 21.2 21.1 17.0 77 2.6 NW 13 19 7 10 1020.0 1020.1 0.0
29/08:30am 19.3 19.9 16.9 86 1.5 NW 9 15 5 8 1020.4 - 0.0
29/08:00am 17.6 17.9 15.9 90 1.0 NNW 9 13 5 7 1020.6 - 0.0
29/07:30am 16.3 16.3 15.3 94 0.6 WNW 9 13 5 7 1020.9 - 0.0
29/07:00am 14.9 14.3 14.7 99 0.1 W 11 15 6 8 1020.9 - 0.0
29/06:30am 13.8 12.9 13.8 100 0.0 W 11 13 6 7 1020.7 - 0.0
29/06:00am 12.8 12.3 12.8 100 0.0 W 7 9 4 5 1020.4 1020.4 0.0
29/05:30am 12.6 12.2 12.4 99 0.1 W 6 9 3 5 1020.1 - 0.0
29/05:00am 12.7 11.8 12.5 99 0.1 WSW 9 13 5 7 1019.9 - 0.0
29/04:30am 13.1 11.9 12.9 99 0.1 SW 11 15 6 8 1019.8 - 0.0
29/04:00am 13.5 13.2 13.3 99 0.1 WSW 7 11 4 6 1019.5 - 0.0
29/03:30am 14.1 13.3 13.9 99 0.1 WSW 11 15 6 8 1019.4 - 0.0
29/03:00am 14.5 13.3 13.9 96 0.3 WSW 13 15 7 8 1019.4 1019.4 0.0
29/02:30am 14.8 13.9 13.8 94 0.6 WSW 11 13 6 7 1019.4 - 0.0
29/02:00am 15.0 14.2 13.9 93 0.6 W 11 13 6 7 1019.7 - 0.0
29/01:30am 14.9 14.4 13.8 93 0.6 W 9 11 5 6 1020.0 - 0.0
29/01:00am 14.9 14.1 13.9 94 0.6 W 11 13 6 7 1020.3 - 0.0
29/12:30am 15.0 14.3 14.2 95 0.5 W 11 15 6 8 1020.8 - 0.0
29/12:00am 15.3 14.9 14.0 92 0.7 W 9 13 5 7 1021.0 1021.0 0.0
 
Date/Time
EST
Temp
°C
App
Temp
°C
Dew
Point
Rel
Hum
%
Delta-T
°C
Wind Press
QNH
hPa
Press
MSL
hPa
Rain
since 9 am
mm
Dir
 
Spd
km/h
Gust
km/h
Spd
kts
Gust
kts
28/11:30pm 15.2 14.8 14.1 93 0.6 W 9 11 5 6 1021.3 - 0.0
28/11:00pm 16.1 15.9 14.8 92 0.7 W 9 11 5 6 1021.5 - 0.0
28/10:30pm 17.5 17.8 14.6 83 1.7 N 6 9 3 5 1021.4 - 0.0
28/10:00pm 18.1 18.3 14.6 80 2.0 NNE 7 13 4 7 1021.2 - 0.0
28/09:30pm 18.3 18.1 14.8 80 2.0 NNE 9 13 5 7 1021.2 - 0.0
28/09:00pm 18.4 18.3 14.9 80 2.0 ENE 9 17 5 9 1021.1 1021.2 0.0
28/08:30pm 18.5 18.4 15.0 80 2.0 ENE 9 15 5 8 1021.2 - 0.0
28/08:00pm 18.6 17.8 13.9 74 2.7 E 11 19 6 10 1021.1 - 0.0
28/07:30pm 18.7 18.0 14.2 75 2.6 E 11 17 6 9 1020.8 - 0.0
28/07:00pm 18.7 17.9 14.0 74 2.7 E 11 17 6 9 1020.4 - 0.0
28/06:30pm 18.6 17.8 13.9 74 2.7 E 11 17 6 9 1020.2 - 0.0
28/06:00pm 18.5 17.2 13.8 74 2.7 E 13 19 7 10 1020.0 1020.0 0.0
28/05:30pm 18.7 17.9 14.0 74 2.7 E 11 17 6 9 1019.9 - 0.0
28/05:00pm 19.2 17.9 13.8 71 3.1 E 13 17 7 9 1019.9 - 0.0
28/04:30pm 19.6 18.9 15.3 76 2.5 E 13 19 7 10 1020.0 - 0.0
28/04:00pm 19.9 18.9 15.5 76 2.6 ESE 15 20 8 11 1019.9 - 0.0
28/03:30pm 20.2 18.9 15.8 76 2.6 ESE 17 22 9 12 1019.9 - 0.0
28/03:00pm 20.4 19.2 16.2 77 2.5 ESE 17 24 9 13 1020.0 1020.0 0.0
28/02:30pm 20.5 18.4 16.1 76 2.6 SE 22 26 12 14 1020.2 - 0.0
28/02:00pm 20.6 18.6 16.4 77 2.5 SE 22 30 12 16 1020.6 - 0.0
28/01:30pm 20.7 18.6 16.3 76 2.7 SE 22 28 12 15 1020.7 - 0.0
28/01:00pm 20.8 18.6 16.8 78 2.4 SE 24 30 13 16 1021.0 - 0.0
28/12:30pm 20.5 17.8 15.7 74 2.9 SE 24 30 13 16 1021.3 - 0.0
28/12:00pm 20.6 18.1 16.2 76 2.6 SE 24 28 13 15 1021.6 1021.6 0.0
28/11:30am 20.8 19.0 16.0 74 2.9 SE 20 28 11 15 1021.9 - 0.0
28/11:00am 20.9 18.8 16.3 75 2.8 SE 22 28 12 15 1022.2 - 0.0
28/10:30am 20.5 18.5 15.5 73 3.0 SE 20 24 11 13 1022.4 - 0.0
28/10:00am 20.0 17.9 14.6 71 3.2 SE 19 26 10 14 1022.8 - 0.0
28/09:30am 20.3 19.3 15.7 75 2.7 SSE 15 20 8 11 1022.9 - 0.0
28/09:00am 19.7 19.7 15.1 75 2.7 SSE 9 15 5 8 1022.9 1022.9 0.2
28/08:30am 18.9 18.5 15.2 79 2.2 SSW 11 13 6 7 1022.8 - 0.2
28/08:00am 17.9 17.9 15.2 84 1.6 SSW 9 19 5 10 1022.7 - 0.2
28/07:30am 16.6 15.5 14.2 86 1.4 SSW 13 17 7 9 1022.5 - 0.2
28/07:00am 16.0 16.3 15.0 94 0.6 SW 7 13 4 7 1022.3 - 0.2
28/06:30am 14.8 14.5 14.5 98 0.2 SW 9 15 5 8 1021.9 - 0.2
28/06:00am 14.2 13.8 14.0 99 0.1 WSW 9 13 5 7 1021.6 1021.5 0.2
28/05:30am 14.3 14.3 14.1 99 0.1 SW 7 11 4 6 1021.4 - 0.2
28/05:00am 14.6 14.3 14.4 99 0.1 SW 9 13 5 7 1021.4 - 0.2
28/04:30am 15.1 15.0 14.9 99 0.1 SSW 9 13 5 7 1021.2 - 0.2
28/04:00am 15.3 15.3 15.1 99 0.1 SW 9 13 5 7 1021.0 - 0.2
28/03:30am 15.5 15.0 14.9 96 0.3 S 11 17 6 9 1020.9 - 0.2
28/03:00am 15.6 14.9 15.3 98 0.2 S 13 19 7 10 1021.0 1021.0 0.2
28/02:30am 16.0 16.2 15.8 99 0.1 SSW 9 13 5 7 1021.1 - 0.2
28/02:00am 15.9 15.6 15.4 97 0.3 SSW 11 15 6 8 1021.2 - 0.0
28/01:30am 16.4 15.0 15.6 95 0.5 S 17 24 9 13 1021.4 - 0.0
28/01:00am 16.5 16.6 15.4 93 0.6 SSW 9 13 5 7 1021.4 - 0.0
28/12:30am 16.8 16.7 15.0 89 1.0 SSW 9 15 5 8 1021.6 - 0.0
28/12:00am 18.2 17.6 14.7 80 2.0 S 11 20 6 11 1021.9 1021.9 0.0
 
Date/Time
EST
Temp
°C
App
Temp
°C
Dew
Point
Rel
Hum
%
Delta-T
°C
Wind Press
QNH
hPa
Press
MSL
hPa
Rain
since 9 am
mm
Dir
 
Spd
km/h
Gust
km/h
Spd
kts
Gust
kts
27/11:30pm 18.4 16.6 14.5 78 2.3 SSE 17 28 9 15 1022.0 - 0.0
27/11:00pm 18.5 16.7 16.1 86 1.4 SE 20 28 11 15 1021.9 - 0.0
27/10:30pm 18.7 16.4 15.8 83 1.7 SSE 22 32 12 17 1021.6 - 0.0
27/10:00pm 18.3 16.1 15.0 81 1.9 SE 20 28 11 15 1021.3 - 0.0
27/09:30pm 18.5 15.4 15.6 83 1.7 SE 26 32 14 17 1021.3 - 0.0
27/09:00pm 18.6 16.4 14.9 79 2.1 SSE 20 30 11 16 1021.2 1021.2 0.0

Other Formats:

Comma delimited format used in spreadsheet applications
http://www.bom.gov.au/fwo/IDN60801/IDN60801.94589.axf

JavaScript Object Notation format (JSON) in row-major order
http://www.bom.gov.au/fwo/IDN60801/IDN60801.94589.json